createdAt,value
2017-11-16T00:02:15.316Z,71.00
2017-11-16T00:04:43.221Z,99.07
2017-11-16T00:07:11.510Z,77.30
2017-11-16T00:09:39.795Z,70.10
2017-11-16T00:12:08.060Z,65.40
2017-11-16T00:14:36.932Z,77.47
2017-11-16T00:17:05.228Z,58.73
2017-11-16T00:19:33.161Z,69.07
2017-11-16T00:22:00.665Z,74.43
2017-11-16T00:24:28.199Z,80.33
2017-11-16T00:26:56.863Z,78.47
2017-11-16T00:29:25.896Z,62.63
2017-11-16T00:31:53.396Z,72.17
2017-11-16T00:34:20.914Z,61.67
2017-11-16T00:36:48.436Z,82.77
2017-11-16T00:39:17.298Z,58.40
2017-11-16T00:41:45.954Z,51.27
2017-11-16T00:44:13.469Z,58.50
2017-11-16T00:46:41.005Z,56.33
2017-11-16T00:49:09.889Z,58.13
2017-11-16T00:51:37.804Z,61.57
2017-11-16T00:54:06.438Z,51.50
2017-11-16T00:56:35.129Z,64.20
2017-11-16T00:59:03.772Z,53.27
2017-11-16T01:01:32.421Z,48.43
2017-11-16T01:03:59.953Z,64.20
2017-11-16T01:06:27.476Z,57.43
2017-11-16T01:08:56.343Z,64.10
2017-11-16T01:11:24.613Z,64.67
2017-11-16T01:13:53.486Z,52.53
2017-11-16T01:16:21.401Z,48.17
2017-11-16T01:18:50.287Z,54.93
2017-11-16T01:21:17.796Z,48.43
2017-11-16T01:23:45.340Z,56.80
2017-11-16T01:26:12.849Z,38.33
2017-11-16T01:28:40.371Z,48.80
2017-11-16T01:31:08.290Z,45.47
2017-11-16T01:33:37.143Z,43.27
2017-11-16T01:36:04.663Z,39.20
2017-11-16T01:38:32.568Z,38.90
2017-11-16T01:41:00.092Z,49.27
2017-11-16T01:43:27.601Z,50.27
2017-11-16T01:45:55.893Z,35.37
2017-11-16T01:48:23.396Z,42.93
2017-11-16T01:50:52.279Z,55.17
2017-11-16T01:53:19.803Z,44.53
2017-11-16T01:55:48.093Z,44.43
2017-11-16T01:58:16.364Z,44.40
2017-11-16T02:00:43.920Z,44.40
2017-11-16T02:03:11.424Z,47.83
2017-11-16T02:05:40.432Z,33.77
2017-11-16T02:08:08.726Z,32.17
2017-11-16T02:10:36.236Z,42.10
2017-11-16T02:13:04.185Z,43.93
2017-11-16T02:15:33.205Z,46.57
2017-11-16T02:18:02.080Z,53.80
2017-11-16T02:20:29.987Z,50.93
2017-11-16T02:22:57.926Z,43.10
2017-11-16T02:25:25.448Z,65.93
2017-11-16T02:27:52.978Z,48.53
2017-11-16T02:30:21.263Z,50.83
2017-11-16T02:32:48.809Z,48.70
2017-11-16T02:35:16.311Z,51.77
2017-11-16T02:37:43.809Z,55.73
2017-11-16T02:40:12.688Z,63.37
2017-11-16T02:42:41.335Z,66.63
2017-11-16T02:45:10.223Z,57.50
2017-11-16T02:47:37.756Z,44.13
2017-11-16T02:50:06.796Z,41.43
2017-11-16T02:52:35.433Z,56.00
2017-11-16T02:55:03.352Z,55.47
2017-11-16T02:57:32.215Z,61.23
2017-11-16T02:59:59.736Z,65.93
2017-11-16T03:02:28.604Z,61.67
2017-11-16T03:04:56.125Z,46.13
2017-11-16T03:10:46.204Z,52.33
2017-11-16T03:13:13.700Z,52.67
2017-11-16T03:15:42.364Z,59.07
2017-11-16T03:18:11.020Z,56.90
2017-11-16T03:20:39.908Z,51.30
2017-11-16T03:23:07.513Z,63.90
2017-11-16T03:25:36.385Z,62.77
2017-11-16T03:28:03.895Z,60.40
2017-11-16T03:30:31.414Z,58.37
2017-11-16T03:32:59.688Z,67.40
2017-11-16T03:35:28.728Z,71.47
2017-11-16T03:37:56.231Z,59.00
2017-11-16T03:40:24.543Z,64.10
2017-11-16T03:42:53.408Z,63.27
2017-11-16T03:45:21.750Z,75.67
2017-11-16T03:47:49.259Z,58.33
2017-11-16T03:50:16.761Z,62.40
2017-11-16T03:52:45.045Z,57.00
2017-11-16T03:55:12.548Z,44.27
2017-11-16T03:57:41.214Z,46.47
2017-11-16T04:00:08.715Z,44.70
2017-11-16T04:02:37.393Z,49.43
2017-11-16T04:05:06.251Z,36.93
2017-11-16T04:07:34.161Z,42.80
2017-11-16T04:10:02.806Z,33.07
2017-11-16T04:12:31.095Z,34.83
2017-11-16T04:14:58.601Z,30.77
2017-11-16T04:17:26.128Z,36.67
2017-11-16T04:19:55.131Z,38.20
2017-11-16T04:22:23.051Z,27.93
2017-11-16T04:24:51.917Z,36.23
2017-11-16T04:27:19.437Z,36.13
2017-11-16T04:29:46.963Z,29.13
2017-11-16T04:32:14.901Z,31.27
2017-11-16T04:34:42.810Z,23.87
2017-11-16T04:37:11.078Z,27.43
2017-11-16T04:39:39.368Z,26.70
2017-11-16T04:42:07.717Z,34.20
2017-11-16T04:44:35.656Z,32.50
2017-11-16T04:47:04.522Z,37.17
2017-11-16T04:49:32.051Z,24.60
2017-11-16T04:51:59.557Z,27.47
2017-11-16T04:54:27.071Z,27.17
2017-11-16T04:56:54.568Z,33.70
2017-11-16T04:59:22.848Z,33.47
2017-11-16T05:01:51.492Z,25.70
2017-11-16T05:04:19.003Z,26.23
2017-11-16T05:06:46.532Z,33.20
2017-11-16T05:09:14.228Z,33.83
2017-11-16T05:11:41.757Z,26.13
2017-11-16T05:14:10.029Z,27.20
2017-11-16T05:16:38.416Z,24.20
2017-11-16T05:19:05.924Z,31.53
2017-11-16T05:21:34.979Z,25.40
2017-11-16T05:24:03.254Z,17.93
2017-11-16T05:26:30.760Z,22.83
2017-11-16T05:28:58.371Z,29.70
2017-11-16T05:31:26.834Z,23.80
2017-11-16T05:33:54.485Z,26.10
2017-11-16T05:36:22.748Z,20.60
2017-11-16T05:38:50.421Z,25.07
2017-11-16T05:41:17.933Z,24.20
2017-11-16T05:43:45.457Z,28.23
2017-11-16T05:46:13.350Z,31.30
2017-11-16T05:48:41.643Z,30.17
2017-11-16T05:51:09.552Z,27.13
2017-11-16T05:53:37.107Z,29.00
2017-11-16T05:56:04.616Z,30.77
2017-11-16T05:58:32.732Z,24.67
2017-11-16T06:01:00.248Z,32.47
2017-11-16T06:03:29.134Z,25.90
2017-11-16T06:05:57.125Z,28.67
2017-11-16T06:08:26.137Z,27.33
2017-11-16T06:10:53.663Z,31.67
2017-11-16T06:13:21.170Z,27.37
2017-11-16T06:15:48.679Z,29.83
2017-11-16T06:18:16.235Z,31.10
2017-11-16T06:20:43.752Z,27.63
2017-11-16T06:23:11.248Z,34.43
2017-11-16T06:25:38.768Z,25.17
2017-11-16T06:28:06.379Z,29.63
2017-11-16T06:30:34.750Z,35.27
2017-11-16T06:33:03.021Z,33.70
2017-11-16T06:35:32.056Z,37.53
2017-11-16T06:37:59.569Z,36.13
2017-11-16T06:40:27.861Z,39.27
2017-11-16T06:42:56.725Z,38.07
2017-11-16T06:45:24.246Z,44.20
2017-11-16T06:47:52.521Z,33.40
2017-11-16T06:50:20.807Z,35.20
2017-11-16T06:52:48.321Z,29.07
2017-11-16T06:55:16.231Z,35.80
2017-11-16T06:57:44.877Z,28.83
2017-11-16T07:00:13.173Z,30.27
2017-11-16T07:02:40.852Z,28.83
2017-11-16T07:05:09.158Z,31.30
2017-11-16T07:07:36.663Z,30.57
2017-11-16T07:10:05.339Z,30.00
2017-11-16T07:12:33.613Z,41.27
2017-11-16T07:15:02.009Z,27.40
2017-11-16T07:17:29.665Z,24.73
2017-11-16T07:19:57.185Z,24.97
2017-11-16T07:22:25.478Z,26.80
2017-11-16T07:24:53.875Z,25.17
2017-11-16T07:27:21.409Z,23.13
2017-11-16T07:29:49.809Z,28.93
2017-11-16T07:32:17.465Z,23.13
2017-11-16T07:34:46.156Z,32.63
2017-11-16T07:37:13.687Z,31.27
2017-11-16T07:39:42.712Z,26.43
2017-11-16T07:42:10.236Z,27.70
2017-11-16T07:44:38.873Z,20.03
2017-11-16T07:47:06.884Z,22.50
2017-11-16T07:49:34.779Z,20.07
2017-11-16T07:52:03.441Z,27.80
2017-11-16T07:54:31.729Z,19.80
2017-11-16T07:56:59.260Z,21.30
2017-11-16T07:59:27.655Z,24.17
2017-11-16T08:01:55.315Z,26.43
2017-11-16T08:04:22.818Z,22.63
2017-11-16T08:06:50.344Z,23.40
2017-11-16T08:09:18.713Z,23.03
2017-11-16T08:11:46.232Z,29.37
2017-11-16T08:14:14.515Z,24.93
2017-11-16T08:16:42.033Z,28.43
2017-11-16T08:19:09.935Z,20.83
2017-11-16T08:21:37.853Z,34.33
2017-11-16T08:24:06.688Z,27.93
2017-11-16T08:26:34.348Z,23.47
2017-11-16T08:29:01.852Z,30.20
2017-11-16T08:31:30.275Z,36.20
2017-11-16T08:33:57.837Z,29.73
2017-11-16T08:36:26.143Z,24.10
2017-11-16T08:38:53.668Z,22.00
2017-11-16T08:41:22.145Z,23.37
2017-11-16T08:43:49.817Z,27.13
2017-11-16T08:46:18.480Z,25.33
2017-11-16T08:48:45.984Z,27.93
2017-11-16T08:51:13.509Z,30.23
2017-11-16T08:53:41.060Z,34.20
2017-11-16T08:56:08.587Z,21.70
2017-11-16T08:58:36.179Z,24.97
2017-11-16T09:01:03.820Z,24.37
2017-11-16T09:03:31.349Z,28.50
2017-11-16T09:05:59.624Z,22.33
2017-11-16T09:08:27.622Z,25.27
2017-11-16T09:10:55.120Z,31.30
2017-11-16T09:13:22.746Z,21.87
2017-11-16T09:15:50.401Z,21.80
2017-11-16T09:18:17.922Z,24.80
2017-11-16T09:20:46.200Z,21.27
2017-11-16T09:23:14.601Z,27.73
2017-11-16T09:25:42.109Z,26.70
2017-11-16T09:28:10.037Z,28.40
2017-11-16T09:30:37.578Z,22.97
2017-11-16T09:33:05.079Z,20.43
2017-11-16T09:35:33.357Z,27.43
2017-11-16T09:38:00.889Z,30.73
2017-11-16T09:40:28.404Z,34.43
2017-11-16T09:42:56.332Z,25.80
2017-11-16T09:45:23.944Z,33.03
2017-11-16T09:47:52.291Z,22.70
2017-11-16T09:50:21.304Z,29.07
2017-11-16T09:52:48.845Z,29.50
2017-11-16T09:55:16.352Z,25.07
2017-11-16T09:57:44.068Z,33.73
2017-11-16T10:00:11.978Z,23.40
2017-11-16T10:02:39.600Z,25.93
2017-11-16T10:05:07.121Z,23.90
2017-11-16T10:07:35.395Z,22.87
2017-11-16T10:10:03.700Z,26.13
2017-11-16T10:12:31.647Z,26.27
2017-11-16T10:14:59.173Z,41.93
2017-11-16T10:17:27.809Z,34.70
2017-11-16T10:19:55.451Z,28.33
2017-11-16T10:22:22.962Z,25.23
2017-11-16T10:24:50.577Z,27.90
2017-11-16T10:27:19.600Z,19.63
2017-11-16T10:29:47.326Z,30.73
2017-11-16T10:32:14.986Z,33.97
2017-11-16T10:34:43.276Z,24.57
2017-11-16T10:37:11.554Z,26.23
2017-11-16T10:39:39.185Z,29.30
2017-11-16T10:42:06.692Z,40.90
2017-11-16T10:44:35.004Z,25.47
2017-11-16T10:47:02.571Z,23.83
2017-11-16T10:49:30.489Z,27.37
2017-11-16T10:51:58.102Z,28.43
2017-11-16T10:54:26.564Z,26.10
2017-11-16T10:56:54.083Z,31.93
2017-11-16T10:59:21.601Z,27.27
2017-11-16T11:01:49.143Z,33.50
2017-11-16T11:04:16.685Z,33.10
2017-11-16T11:06:44.961Z,30.07
2017-11-16T11:09:12.486Z,29.50
2017-11-16T11:11:40.387Z,25.87
2017-11-16T11:14:08.049Z,24.07
2017-11-16T11:16:35.579Z,31.07
2017-11-16T11:19:03.175Z,35.80
2017-11-16T11:21:30.809Z,27.33
2017-11-16T11:23:58.884Z,27.47
2017-11-16T11:26:27.760Z,22.57
2017-11-16T11:28:55.442Z,36.80
2017-11-16T11:31:22.996Z,24.67
2017-11-16T11:33:52.006Z,29.40
2017-11-16T11:36:19.520Z,29.00
2017-11-16T11:38:47.082Z,25.17
2017-11-16T11:41:14.737Z,25.00
2017-11-16T11:43:43.604Z,22.10
2017-11-16T11:46:11.917Z,23.10
2017-11-16T11:48:39.560Z,24.97
2017-11-16T11:51:07.084Z,26.23
2017-11-16T11:53:35.361Z,23.60
2017-11-16T11:56:03.669Z,26.17
2017-11-16T11:58:31.216Z,32.40
2017-11-16T12:00:58.744Z,30.67
2017-11-16T12:03:26.652Z,23.10
2017-11-16T12:05:54.209Z,24.87
2017-11-16T12:08:21.711Z,24.30
2017-11-16T12:10:49.315Z,22.70
2017-11-16T12:13:16.865Z,26.47
2017-11-16T12:15:44.412Z,24.83
2017-11-16T12:18:11.938Z,17.70
2017-11-16T12:20:39.531Z,25.30
2017-11-16T12:23:07.192Z,25.20
2017-11-16T12:25:34.688Z,24.60
2017-11-16T12:28:02.321Z,23.27
2017-11-16T12:30:29.835Z,26.00
2017-11-16T12:32:58.127Z,23.03
2017-11-16T12:35:25.636Z,25.43
2017-11-16T12:37:53.951Z,26.73
2017-11-16T12:40:21.853Z,26.23
2017-11-16T12:42:50.149Z,22.53
2017-11-16T12:45:17.767Z,23.97
2017-11-16T12:47:46.068Z,23.60
2017-11-16T12:50:13.976Z,27.10
2017-11-16T12:52:42.351Z,27.37
2017-11-16T12:55:09.849Z,24.60
2017-11-16T12:57:38.753Z,19.87
2017-11-16T13:00:06.286Z,25.57
2017-11-16T13:02:34.946Z,25.07
2017-11-16T13:05:02.468Z,34.93
2017-11-16T13:07:30.786Z,25.43
2017-11-16T13:09:58.293Z,28.87
2017-11-16T13:12:25.816Z,28.17
2017-11-16T13:14:53.361Z,25.60
2017-11-16T13:17:20.950Z,22.83
2017-11-16T13:19:48.465Z,27.63
2017-11-16T13:22:16.013Z,26.63
2017-11-16T13:24:44.654Z,27.47
2017-11-16T13:27:12.367Z,23.40
2017-11-16T13:29:40.748Z,28.93
2017-11-16T13:32:08.266Z,30.43
2017-11-16T13:34:35.880Z,28.87
2017-11-16T13:37:03.421Z,33.67
2017-11-16T13:39:30.947Z,34.40
2017-11-16T13:41:59.759Z,30.87
2017-11-16T13:44:28.643Z,25.67
2017-11-16T13:46:57.115Z,26.20
2017-11-16T13:49:24.764Z,31.10
2017-11-16T13:51:52.291Z,31.50
2017-11-16T13:54:20.288Z,28.97
2017-11-16T13:56:47.792Z,32.93
2017-11-16T13:59:15.739Z,31.07
2017-11-16T14:01:43.249Z,41.87
2017-11-16T14:04:11.156Z,37.20
2017-11-16T14:06:38.812Z,38.30
2017-11-16T14:09:06.460Z,40.17
2017-11-16T14:11:34.753Z,36.43
2017-11-16T14:14:02.269Z,38.33
2017-11-16T14:16:29.823Z,40.67
2017-11-16T14:18:57.332Z,34.87
2017-11-16T14:21:24.867Z,35.83
2017-11-16T14:23:52.384Z,45.37
2017-11-16T14:26:19.905Z,37.10
2017-11-16T14:28:47.520Z,31.80
2017-11-16T14:31:15.157Z,34.23
2017-11-16T14:33:42.832Z,38.03
2017-11-16T14:36:11.100Z,31.23
2017-11-16T14:38:38.640Z,34.93
2017-11-16T14:41:06.546Z,38.03
2017-11-16T14:43:34.285Z,30.07
2017-11-16T14:46:01.801Z,32.10
2017-11-16T14:48:30.104Z,39.17
2017-11-16T14:50:57.609Z,37.00
2017-11-16T14:53:25.139Z,35.00
2017-11-16T14:55:53.800Z,37.47
2017-11-16T14:58:21.316Z,43.10
2017-11-16T15:00:50.143Z,42.90
2017-11-16T15:03:18.448Z,38.60
2017-11-16T15:05:45.956Z,30.40
2017-11-16T15:08:14.229Z,41.87
2017-11-16T15:10:42.208Z,44.20
2017-11-16T15:13:09.885Z,43.13
2017-11-16T15:15:37.404Z,45.37
2017-11-16T15:18:05.681Z,38.53
2017-11-16T15:20:34.719Z,38.13
2017-11-16T15:23:02.992Z,35.57
2017-11-16T15:25:30.630Z,27.63
2017-11-16T15:27:58.146Z,31.47
2017-11-16T15:30:26.524Z,37.47
2017-11-16T15:32:54.417Z,42.07
2017-11-16T15:35:22.068Z,40.50
2017-11-16T15:37:49.572Z,33.23
2017-11-16T15:40:18.221Z,27.63
2017-11-16T15:42:46.142Z,35.87
2017-11-16T15:45:14.784Z,33.63
2017-11-16T15:47:42.313Z,40.83
2017-11-16T15:50:09.820Z,38.53
2017-11-16T15:52:38.865Z,39.03
2017-11-16T15:55:06.369Z,37.43
2017-11-16T15:57:34.677Z,41.40
2017-11-16T16:00:02.584Z,41.63
2017-11-16T16:02:30.117Z,38.30
2017-11-16T16:04:58.390Z,34.20
2017-11-16T16:07:25.892Z,32.80
2017-11-16T16:09:54.189Z,32.13
2017-11-16T16:12:22.090Z,33.30
2017-11-16T16:14:50.573Z,37.63
2017-11-16T16:17:18.467Z,36.90
2017-11-16T16:19:45.989Z,28.53
2017-11-16T16:22:15.000Z,41.17
2017-11-16T16:24:44.077Z,49.70
2017-11-16T16:27:11.610Z,33.27
2017-11-16T16:29:39.174Z,41.40
2017-11-16T16:32:08.200Z,34.00
2017-11-16T16:34:37.360Z,39.33
2017-11-16T16:37:04.911Z,40.53
2017-11-16T16:39:32.471Z,26.40
2017-11-16T16:41:59.997Z,40.47
2017-11-16T16:44:28.276Z,52.47
2017-11-16T16:46:56.211Z,42.50
2017-11-16T16:49:24.113Z,43.90
2017-11-16T16:51:51.665Z,36.00
2017-11-16T16:54:20.537Z,37.87
2017-11-16T16:56:49.358Z,40.60
2017-11-16T16:59:17.018Z,34.73
2017-11-16T17:01:44.525Z,34.27
2017-11-16T17:04:12.819Z,38.07
2017-11-16T17:06:40.333Z,31.40
2017-11-16T17:09:08.060Z,46.60
2017-11-16T17:11:35.551Z,26.20
2017-11-16T17:14:03.072Z,31.73
2017-11-16T17:16:30.593Z,33.47
2017-11-16T17:18:58.512Z,26.30
2017-11-16T17:21:26.021Z,27.03
2017-11-16T17:23:54.828Z,32.17
2017-11-16T17:26:22.336Z,39.90
2017-11-16T17:28:49.842Z,30.67
2017-11-16T17:31:17.368Z,41.13
2017-11-16T17:33:45.273Z,32.53
2017-11-16T17:36:12.795Z,37.20
2017-11-16T17:38:40.288Z,35.13
2017-11-16T17:41:07.824Z,29.40
2017-11-16T17:43:35.472Z,35.97
2017-11-16T17:46:04.164Z,29.50
2017-11-16T17:48:31.677Z,32.97
2017-11-16T17:51:00.563Z,33.40
2017-11-16T17:53:29.205Z,36.40
2017-11-16T17:55:57.262Z,31.17
2017-11-16T17:58:25.529Z,35.13
2017-11-16T18:00:53.188Z,33.70
2017-11-16T18:03:20.840Z,37.80
2017-11-16T18:05:49.112Z,37.17
2017-11-16T18:08:16.640Z,50.13
2017-11-16T18:10:45.665Z,44.60
2017-11-16T18:13:13.193Z,34.23
2017-11-16T18:15:42.223Z,40.60
2017-11-16T18:18:09.752Z,37.50
2017-11-16T18:20:37.256Z,52.23
2017-11-16T18:23:05.385Z,37.50
2017-11-16T18:25:33.278Z,34.83
2017-11-16T18:28:00.913Z,33.70
2017-11-16T18:30:29.568Z,29.50
2017-11-16T18:32:57.249Z,35.67
2017-11-16T18:35:24.918Z,36.63
2017-11-16T18:37:52.560Z,38.67
2017-11-16T18:40:20.480Z,32.27
2017-11-16T18:42:48.780Z,35.20
2017-11-16T18:45:16.697Z,36.07
2017-11-16T18:47:44.235Z,34.67
2017-11-16T18:50:11.895Z,30.67
2017-11-16T18:52:40.894Z,34.83
2017-11-16T18:55:09.803Z,38.77
2017-11-16T18:57:37.310Z,35.13
2017-11-16T19:00:04.976Z,36.47
2017-11-16T19:02:33.045Z,43.33
2017-11-16T19:05:00.944Z,34.80
2017-11-16T19:07:29.599Z,32.10
2017-11-16T19:09:57.497Z,33.37
2017-11-16T19:12:25.521Z,36.53
2017-11-16T19:14:53.999Z,43.00
2017-11-16T19:17:22.657Z,37.13
2017-11-16T19:19:51.520Z,35.33
2017-11-16T19:22:19.071Z,42.17
2017-11-16T19:24:46.597Z,47.80
2017-11-16T19:27:14.108Z,38.77
2017-11-16T19:29:41.631Z,37.63
2017-11-16T19:32:09.131Z,36.23
2017-11-16T19:34:36.697Z,34.77
2017-11-16T19:37:04.365Z,34.67
2017-11-16T19:39:32.662Z,33.07
2017-11-16T19:42:00.552Z,35.97
2017-11-16T19:44:28.095Z,36.63
2017-11-16T19:46:56.360Z,34.00
2017-11-16T19:49:23.855Z,32.20
2017-11-16T19:51:52.152Z,47.10
2017-11-16T19:54:19.660Z,36.17
2017-11-16T19:56:47.188Z,38.43
2017-11-16T19:59:16.172Z,38.87
2017-11-16T20:01:45.200Z,35.87
2017-11-16T20:04:13.843Z,37.40
2017-11-16T20:06:42.135Z,39.17
2017-11-16T20:09:09.657Z,45.73
2017-11-16T20:11:37.198Z,35.90
2017-11-16T20:14:06.058Z,42.13
2017-11-16T20:16:33.565Z,35.50
2017-11-16T20:19:02.230Z,40.27
2017-11-16T20:21:29.734Z,38.90
2017-11-16T20:23:58.877Z,33.73
2017-11-16T20:26:26.376Z,39.40
2017-11-16T20:28:54.321Z,46.83
2017-11-16T20:31:21.855Z,40.97
2017-11-16T20:33:49.393Z,36.57
2017-11-16T20:36:17.661Z,40.63
2017-11-16T20:38:50.478Z,42.10
2017-11-16T20:41:18.899Z,43.63
2017-11-16T20:43:52.152Z,37.40
2017-11-16T20:46:36.333Z,33.17
2017-11-16T20:49:06.552Z,42.77
2017-11-16T20:51:54.083Z,40.17
2017-11-16T20:54:37.393Z,45.60
2017-11-16T20:57:04.897Z,38.23
2017-11-16T20:59:32.412Z,38.07
2017-11-16T21:02:00.306Z,41.73
2017-11-16T21:04:29.287Z,45.37
2017-11-16T21:06:56.788Z,36.00
2017-11-16T21:09:25.543Z,41.77
2017-11-16T21:11:53.204Z,43.17
2017-11-16T21:14:21.101Z,41.27
2017-11-16T21:16:49.393Z,42.63
2017-11-16T21:19:16.893Z,35.67
2017-11-16T21:21:44.409Z,48.03
2017-11-16T21:24:11.918Z,33.93
2017-11-16T21:26:39.580Z,53.87
2017-11-16T21:29:07.084Z,39.97
2017-11-16T21:31:34.604Z,33.57
2017-11-16T21:34:03.377Z,38.27
2017-11-16T21:36:30.884Z,41.57
2017-11-16T21:38:59.709Z,43.00
2017-11-16T21:41:27.221Z,35.20
2017-11-16T21:43:55.136Z,41.20
2017-11-16T21:46:23.396Z,44.10
2017-11-16T21:48:52.275Z,36.77
2017-11-16T21:51:21.077Z,39.30
2017-11-16T21:53:48.716Z,39.40
2017-11-16T21:56:16.220Z,42.20
2017-11-16T21:58:43.774Z,38.63
2017-11-16T22:01:11.281Z,38.10
2017-11-16T22:03:40.139Z,40.73
2017-11-16T22:06:09.277Z,43.70
2017-11-16T22:08:38.139Z,44.50
2017-11-16T22:11:06.448Z,47.20
2017-11-16T22:13:33.956Z,43.17
2017-11-16T22:16:01.484Z,51.33
2017-11-16T22:18:29.752Z,34.63
2017-11-16T22:20:57.678Z,49.63
2017-11-16T22:23:25.591Z,40.17
2017-11-16T22:25:53.210Z,45.37
2017-11-16T22:28:21.851Z,43.23
2017-11-16T22:30:49.349Z,41.63
2017-11-16T22:33:17.024Z,48.57
2017-11-16T22:35:44.674Z,37.07
2017-11-16T22:38:12.208Z,51.43
2017-11-16T22:40:39.785Z,40.60
2017-11-16T22:43:07.312Z,43.60
2017-11-16T22:45:36.331Z,41.67
2017-11-16T22:48:03.956Z,42.10
2017-11-16T22:50:32.241Z,47.20
2017-11-16T22:52:59.863Z,41.30
2017-11-16T22:55:27.364Z,34.30
2017-11-16T22:57:54.905Z,46.73
2017-11-16T23:00:25.367Z,42.87
2017-11-16T23:02:53.014Z,38.60
2017-11-16T23:05:20.535Z,42.63
2017-11-16T23:07:49.460Z,46.23
2017-11-16T23:10:17.371Z,37.80
2017-11-16T23:12:44.893Z,52.30
2017-11-16T23:15:12.932Z,42.33
2017-11-16T23:17:40.835Z,41.13
2017-11-16T23:20:09.138Z,57.97
2017-11-16T23:22:37.139Z,46.77
2017-11-16T23:25:05.059Z,54.20
2017-11-16T23:27:32.573Z,42.53
2017-11-16T23:30:00.088Z,40.80
2017-11-16T23:32:28.935Z,45.30
2017-11-16T23:34:56.452Z,43.63
2017-11-16T23:37:24.356Z,47.93
2017-11-16T23:39:52.411Z,36.13
2017-11-16T23:42:19.933Z,41.43
2017-11-16T23:44:47.496Z,44.03
2017-11-16T23:47:15.768Z,47.00
2017-11-16T23:49:43.300Z,41.60
2017-11-16T23:52:11.586Z,42.90
2017-11-16T23:54:39.889Z,46.30
2017-11-16T23:57:07.417Z,38.97
2017-11-16T23:59:35.716Z,38.33
